Wetterdaten: Woche 17.08.09 - 23.08.09 (KW34)
Datum Zeit Temp. Innen Temp. Aussen UV X Diff Temp. Feuchte Inne Feuchte Auss Sonnenschein Luftdruck Regen ab 0,1 Wind Sonnenschein Windben
17.08.2009 00:00 24,3 C 18,2 C 0,0 UV-I 0,0 C 61 % 84 % 0 % 1016,3 hPa 0,0 l/m 0,0 km/h (0 Bft) 0,00 h 0,0 km/h (0 Bft)
17.08.2009 01:00 24,1 C 17,3 C 0,0 UV-I 0,0 C 61 % 86 % 0 % 1016,2 hPa 0,0 l/m 0,0 km/h (0 Bft) 0,00 h 0,0 km/h (0 Bft)
17.08.2009 02:00 23,9 C 16,6 C 0,0 UV-I 0,0 C 61 % 87 % 0 % 1016,0 hPa 0,0 l/m 0,0 km/h (0 Bft) 0,00 h 0,0 km/h (0 Bft)
17.08.2009 03:00 23,6 C 15,8 C 0,0 UV-I 0,0 C 61 % 89 % 0 % 1015,6 hPa 0,0 l/m 0,0 km/h (0 Bft) 0,00 h 0,0 km/h (0 Bft)
17.08.2009 04:00 23,3 C 15,4 C 0,0 UV-I 0,0 C 61 % 90 % 0 % 1015,2 hPa 0,0 l/m 0,0 km/h (0 Bft) 0,00 h 0,0 km/h (0 Bft)
17.08.2009 05:00 23,1 C 15,0 C 0,0 UV-I 0,0 C 61 % 91 % 0 % 1014,9 hPa 0,0 l/m 0,0 km/h (0 Bft) 0,00 h 0,0 km/h (0 Bft)
17.08.2009 06:00 23,0 C 14,9 C 0,0 UV-I 0,0 C 61 % 92 % 0 % 1014,9 hPa 0,0 l/m 0,0 km/h (0 Bft) 0,00 h 0,6 km/h (0 Bft)
17.08.2009 07:00 22,9 C 15,4 C 0,1 UV-I 0,0 C 62 % 93 % 0 % 1015,2 hPa 0,0 l/m 0,9 km/h (0 Bft) 0,00 h 3,3 km/h (1 Bft)
17.08.2009 08:00 23,0 C 16,1 C 0,9 UV-I 0,1 C 63 % 93 % 3 % 1015,7 hPa 0,0 l/m 0,7 km/h (0 Bft) 0,00 h 2,1 km/h (1 Bft)
17.08.2009 09:00 23,0 C 17,1 C 1,8 UV-I 1,0 C 61 % 89 % 29 % 1015,4 hPa 0,0 l/m 1,7 km/h (1 Bft) 0,10 h 4,7 km/h (1 Bft)
17.08.2009 10:00 23,3 C 19,0 C 5,3 UV-I 4,5 C 61 % 82 % 100 % 1015,3 hPa 0,0 l/m 2,2 km/h (1 Bft) 0,90 h 4,6 km/h (1 Bft)
17.08.2009 11:00 23,7 C 21,2 C 9,1 UV-I 5,2 C 60 % 71 % 100 % 1015,4 hPa 0,0 l/m 2,4 km/h (1 Bft) 0,77 h 5,0 km/h (1 Bft)
17.08.2009 12:00 24,0 C 23,3 C 8,9 UV-I 4,8 C 59 % 61 % 100 % 1015,6 hPa 0,0 l/m 3,0 km/h (1 Bft) 0,55 h 5,6 km/h (1 Bft)
17.08.2009 13:00 24,7 C 25,7 C 6,8 UV-I 4,8 C 57 % 52 % 100 % 1015,4 hPa 0,0 l/m 3,8 km/h (1 Bft) 0,40 h 5,6 km/h (1 Bft)
17.08.2009 14:00 26,1 C 26,4 C 6,5 UV-I 3,7 C 53 % 52 % 95 % 1017,5 hPa 0,0 l/m 4,3 km/h (1 Bft) 0,52 h 7,7 km/h (2 Bft)
17.08.2009 15:00 26,9 C 26,2 C 5,8 UV-I 3,1 C 51 % 55 % 88 % 1017,8 hPa 0,0 l/m 4,5 km/h (1 Bft) 0,70 h 9,7 km/h (2 Bft)
17.08.2009 16:00 27,4 C 25,3 C 4,5 UV-I 2,5 C 50 % 56 % 70 % 1017,8 hPa 0,0 l/m 4,7 km/h (1 Bft) 0,37 h 8,7 km/h (2 Bft)
17.08.2009 17:00 27,6 C 24,6 C 2,2 UV-I 1,8 C 49 % 56 % 53 % 1017,4 hPa 0,0 l/m 4,5 km/h (1 Bft) 0,00 h 8,5 km/h (2 Bft)
17.08.2009 18:00 26,9 C 23,7 C 1,0 UV-I 0,2 C 50 % 59 % 5 % 1016,8 hPa 0,0 l/m 4,4 km/h (1 Bft) 0,00 h 9,3 km/h (2 Bft)
17.08.2009 19:00 26,1 C 22,4 C 0,6 UV-I 0,0 C 52 % 61 % 0 % 1016,6 hPa 0,0 l/m 5,6 km/h (1 Bft) 0,00 h 10,1 km/h (2 Bft)
17.08.2009 20:00 25,4 C 20,9 C 0,1 UV-I 0,0 C 52 % 63 % 0 % 1017,1 hPa 0,0 l/m 3,3 km/h (1 Bft) 0,00 h 6,3 km/h (2 Bft)
17.08.2009 21:00 24,8 C 19,5 C 0,0 UV-I 0,0 C 53 % 68 % 0 % 1017,9 hPa 0,0 l/m 0,6 km/h (0 Bft) 0,00 h 1,1 km/h (1 Bft)
17.08.2009 22:00 24,5 C 17,9 C 0,0 UV-I 0,0 C 54 % 73 % 0 % 1018,3 hPa 0,0 l/m 0,0 km/h (0 Bft) 0,00 h 0,0 km/h (0 Bft)
17.08.2009 23:00 24,0 C 16,5 C 0,0 UV-I 0,0 C 55 % 78 % 0 % 1018,8 hPa 0,0 l/m 0,0 km/h (0 Bft) 0,00 h 0,0 km/h (0 Bft)
18.08.2009 00:00 23,6 C 15,3 C 0,0 UV-I 0,0 C 55 % 82 % 0 % 1019,3 hPa 0,0 l/m 0,0 km/h (0 Bft) 0,00 h 0,0 km/h (0 Bft)
18.08.2009 01:00 23,3 C 14,4 C 0,0 UV-I 0,0 C 56 % 85 % 0 % 1019,6 hPa 0,0 l/m 0,0 km/h (0 Bft) 0,00 h 0,0 km/h (0 Bft)
18.08.2009 02:00 22,9 C 13,7 C 0,0 UV-I 0,0 C 56 % 87 % 0 % 1019,6 hPa 0,0 l/m 0,0 km/h (0 Bft) 0,00 h 0,0 km/h (0 Bft)
18.08.2009 03:00 22,7 C 13,2 C 0,0 UV-I 0,0 C 56 % 88 % 0 % 1019,8 hPa 0,0 l/m 0,0 km/h (0 Bft) 0,00 h 0,0 km/h (0 Bft)
18.08.2009 04:00 22,3 C 12,8 C 0,0 UV-I 0,0 C 56 % 90 % 0 % 1020,2 hPa 0,0 l/m 0,0 km/h (0 Bft) 0,00 h 0,0 km/h (0 Bft)
18.08.2009 05:00 22,2 C 12,4 C 0,0 UV-I 0,0 C 56 % 90 % 0 % 1020,5 hPa 0,0 l/m 0,0 km/h (0 Bft) 0,00 h 0,0 km/h (0 Bft)
18.08.2009 06:00 22,0 C 12,1 C 0,0 UV-I 0,0 C 56 % 91 % 0 % 1020,8 hPa 0,0 l/m 0,0 km/h (0 Bft) 0,00 h 0,0 km/h (0 Bft)
18.08.2009 07:00 21,9 C 12,2 C 0,2 UV-I 0,1 C 57 % 92 % 3 % 1021,4 hPa 0,0 l/m 0,0 km/h (0 Bft) 0,00 h 0,2 km/h (0 Bft)
18.08.2009 08:00 22,0 C 13,6 C 0,8 UV-I 1,0 C 59 % 94 % 30 % 1021,6 hPa 0,0 l/m 1,4 km/h (1 Bft) 0,00 h 3,0 km/h (1 Bft)
18.08.2009 09:00 22,3 C 16,0 C 1,4 UV-I 1,8 C 59 % 90 % 50 % 1022,0 hPa 0,0 l/m 1,3 km/h (1 Bft) 0,10 h 4,1 km/h (1 Bft)
18.08.2009 10:00 22,6 C 18,9 C 8,0 UV-I 6,5 C 58 % 79 % 100 % 1022,5 hPa 0,0 l/m 2,6 km/h (1 Bft) 0,87 h 5,8 km/h (2 Bft)
18.08.2009 11:00 22,8 C 22,1 C 11,9 UV-I 5,5 C 57 % 65 % 100 % 1022,9 hPa 0,0 l/m 3,0 km/h (1 Bft) 0,87 h 5,6 km/h (1 Bft)
18.08.2009 12:00 23,2 C 24,3 C 8,9 UV-I 4,4 C 56 % 57 % 94 % 1023,2 hPa 0,0 l/m 1,9 km/h (1 Bft) 0,63 h 3,5 km/h (1 Bft)
18.08.2009 13:00 23,9 C 26,0 C 6,4 UV-I 4,3 C 54 % 49 % 99 % 1023,2 hPa 0,0 l/m 1,6 km/h (1 Bft) 0,80 h 4,2 km/h (1 Bft)
18.08.2009 14:00 25,4 C 27,6 C 7,3 UV-I 3,8 C 51 % 45 % 99 % 1025,0 hPa 0,0 l/m 2,9 km/h (1 Bft) 0,70 h 5,7 km/h (1 Bft)
18.08.2009 15:00 27,0 C 28,4 C 8,7 UV-I 4,1 C 47 % 41 % 98 % 1025,9 hPa 0,0 l/m 2,0 km/h (1 Bft) 0,70 h 4,5 km/h (1 Bft)
18.08.2009 16:00 28,3 C 29,2 C 5,6 UV-I 4,7 C 43 % 38 % 100 % 1026,1 hPa 0,0 l/m 0,7 km/h (0 Bft) 0,50 h 2,4 km/h (1 Bft)
18.08.2009 17:00 28,6 C 28,3 C 2,1 UV-I 3,1 C 42 % 37 % 75 % 1025,0 hPa 0,0 l/m 1,2 km/h (1 Bft) 0,23 h 3,2 km/h (1 Bft)
18.08.2009 18:00 27,5 C 26,3 C 1,3 UV-I 0,8 C 44 % 40 % 24 % 1023,1 hPa 0,0 l/m 0,5 km/h (0 Bft) 0,00 h 0,9 km/h (0 Bft)
18.08.2009 19:00 26,4 C 24,9 C 0,6 UV-I 0,0 C 45 % 45 % 0 % 1021,8 hPa 0,0 l/m 0,2 km/h (0 Bft) 0,00 h 0,5 km/h (0 Bft)
18.08.2009 20:00 25,8 C 23,2 C 0,1 UV-I 0,0 C 47 % 51 % 0 % 1021,2 hPa 0,0 l/m 0,0 km/h (0 Bft) 0,00 h 0,0 km/h (0 Bft)
18.08.2009 21:00 25,3 C 21,2 C 0,0 UV-I 0,0 C 49 % 58 % 0 % 1021,5 hPa 0,0 l/m 0,0 km/h (0 Bft) 0,00 h 0,0 km/h (0 Bft)
18.08.2009 22:00 24,8 C 19,5 C 0,0 UV-I 0,0 C 50 % 63 % 0 % 1021,6 hPa 0,0 l/m 0,0 km/h (0 Bft) 0,00 h 0,0 km/h (0 Bft)
18.08.2009 23:00 24,4 C 18,0 C 0,0 UV-I 0,0 C 52 % 69 % 0 % 1021,4 hPa 0,0 l/m 0,0 km/h (0 Bft) 0,00 h 0,0 km/h (0 Bft)
19.08.2009 00:00 24,1 C 16,8 C 0,0 UV-I 0,0 C 52 % 74 % 0 % 1021,4 hPa 0,0 l/m 0,0 km/h (0 Bft) 0,00 h 0,0 km/h (0 Bft)
19.08.2009 01:00 23,9 C 15,9 C 0,0 UV-I 0,0 C 53 % 78 % 0 % 1021,2 hPa 0,0 l/m 0,0 km/h (0 Bft) 0,00 h 0,0 km/h (0 Bft)
19.08.2009 02:00 23,6 C 15,3 C 0,0 UV-I 0,0 C 53 % 79 % 0 % 1020,8 hPa 0,0 l/m 0,0 km/h (0 Bft) 0,00 h 0,0 km/h (0 Bft)
19.08.2009 03:00 23,3 C 15,0 C 0,0 UV-I 0,0 C 52 % 80 % 0 % 1020,7 hPa 0,0 l/m 0,2 km/h (0 Bft) 0,00 h 0,0 km/h (0 Bft)
19.08.2009 04:00 23,1 C 15,4 C 0,0 UV-I 0,0 C 52 % 79 % 0 % 1020,8 hPa 0,0 l/m 1,7 km/h (1 Bft) 0,00 h 4,7 km/h (1 Bft)
19.08.2009 05:00 22,9 C 15,6 C 0,0 UV-I 0,0 C 52 % 78 % 0 % 1020,8 hPa 0,0 l/m 0,3 km/h (0 Bft) 0,00 h 0,4 km/h (0 Bft)
19.08.2009 06:00 22,8 C 15,0 C 0,0 UV-I 0,0 C 53 % 80 % 0 % 1020,9 hPa 0,0 l/m 0,0 km/h (0 Bft) 0,00 h 0,0 km/h (0 Bft)
19.08.2009 07:00 22,8 C 14,8 C 0,4 UV-I 0,1 C 54 % 83 % 2 % 1020,8 hPa 0,0 l/m 0,0 km/h (0 Bft) 0,00 h 0,4 km/h (0 Bft)
19.08.2009 08:00 22,8 C 16,0 C 1,1 UV-I 1,0 C 54 % 82 % 30 % 1020,9 hPa 0,0 l/m 1,5 km/h (1 Bft) 0,00 h 3,4 km/h (1 Bft)
19.08.2009 09:00 23,0 C 18,3 C 1,6 UV-I 1,7 C 55 % 77 % 47 % 1021,1 hPa 0,0 l/m 2,7 km/h (1 Bft) 0,10 h 6,9 km/h (2 Bft)
19.08.2009 10:00 23,2 C 21,8 C 8,9 UV-I 6,6 C 55 % 68 % 100 % 1021,0 hPa 0,0 l/m 3,2 km/h (1 Bft) 0,97 h 6,8 km/h (2 Bft)
19.08.2009 11:00 23,6 C 25,7 C 12,3 UV-I 5,3 C 55 % 57 % 100 % 1021,2 hPa 0,0 l/m 4,2 km/h (1 Bft) 0,87 h 9,3 km/h (2 Bft)
19.08.2009 12:00 23,9 C 28,7 C 10,8 UV-I 4,9 C 55 % 49 % 100 % 1021,0 hPa 0,0 l/m 2,7 km/h (1 Bft) 0,83 h 4,5 km/h (1 Bft)
19.08.2009 13:00 24,6 C 30,9 C 7,0 UV-I 4,2 C 54 % 43 % 100 % 1020,8 hPa 0,0 l/m 2,5 km/h (1 Bft) 0,87 h 5,6 km/h (1 Bft)
19.08.2009 14:00 26,1 C 32,8 C 7,9 UV-I 3,4 C 51 % 38 % 96 % 1022,7 hPa 0,0 l/m 3,4 km/h (1 Bft) 0,70 h 7,5 km/h (2 Bft)
19.08.2009 15:00 27,8 C 34,0 C 10,3 UV-I 3,1 C 46 % 34 % 90 % 1023,8 hPa 0,0 l/m 3,5 km/h (1 Bft) 0,63 h 6,7 km/h (2 Bft)
19.08.2009 16:00 29,3 C 34,3 C 6,9 UV-I 3,5 C 43 % 32 % 96 % 1024,1 hPa 0,0 l/m 3,1 km/h (1 Bft) 0,80 h 6,1 km/h (2 Bft)
19.08.2009 17:00 29,7 C 33,4 C 2,0 UV-I 2,4 C 41 % 32 % 67 % 1022,8 hPa 0,0 l/m 2,4 km/h (1 Bft) 0,30 h 4,5 km/h (1 Bft)
19.08.2009 18:00 28,4 C 31,5 C 1,2 UV-I 0,5 C 43 % 34 % 14 % 1020,9 hPa 0,0 l/m 0,7 km/h (0 Bft) 0,00 h 1,4 km/h (1 Bft)
19.08.2009 19:00 27,4 C 29,9 C 0,4 UV-I 0,0 C 46 % 42 % 0 % 1019,7 hPa 0,0 l/m 0,0 km/h (0 Bft) 0,00 h 0,0 km/h (0 Bft)
19.08.2009 20:00 26,7 C 27,7 C 0,0 UV-I 0,0 C 48 % 52 % 0 % 1019,1 hPa 0,0 l/m 0,0 km/h (0 Bft) 0,00 h 0,0 km/h (0 Bft)
19.08.2009 21:00 26,3 C 25,1 C 0,0 UV-I 0,0 C 51 % 61 % 0 % 1019,6 hPa 0,0 l/m 0,0 km/h (0 Bft) 0,00 h 0,0 km/h (0 Bft)
19.08.2009 22:00 26,0 C 23,1 C 0,0 UV-I 0,0 C 53 % 66 % 0 % 1019,6 hPa 0,0 l/m 0,0 km/h (0 Bft) 0,00 h 0,0 km/h (0 Bft)
19.08.2009 23:00 25,7 C 21,5 C 0,0 UV-I 0,0 C 55 % 71 % 0 % 1019,5 hPa 0,0 l/m 0,0 km/h (0 Bft) 0,00 h 0,0 km/h (0 Bft)
20.08.2009 00:00 25,3 C 20,7 C 0,0 UV-I 0,0 C 56 % 72 % 0 % 1019,3 hPa 0,0 l/m 0,1 km/h (0 Bft) 0,00 h 0,3 km/h (0 Bft)
20.08.2009 01:00 25,1 C 20,1 C 0,0 UV-I 0,0 C 56 % 74 % 0 % 1019,4 hPa 0,0 l/m 0,0 km/h (0 Bft) 0,00 h 0,2 km/h (0 Bft)
20.08.2009 02:00 24,9 C 19,5 C 0,0 UV-I 0,0 C 57 % 76 % 0 % 1019,0 hPa 0,0 l/m 0,2 km/h (0 Bft) 0,00 h 0,3 km/h (0 Bft)
20.08.2009 03:00 24,7 C 19,1 C 0,0 UV-I 0,0 C 57 % 77 % 0 % 1018,5 hPa 0,0 l/m 0,1 km/h (0 Bft) 0,00 h 0,2 km/h (0 Bft)
20.08.2009 04:00 24,6 C 19,2 C 0,0 UV-I 0,0 C 57 % 78 % 0 % 1017,6 hPa 0,0 l/m 0,5 km/h (0 Bft) 0,00 h 2,6 km/h (1 Bft)
20.08.2009 05:00 24,5 C 19,4 C 0,0 UV-I 0,0 C 58 % 78 % 0 % 1017,5 hPa 0,0 l/m 0,2 km/h (0 Bft) 0,00 h 1,7 km/h (1 Bft)
20.08.2009 06:00 24,4 C 19,5 C 0,0 UV-I 0,0 C 58 % 78 % 0 % 1017,2 hPa 0,0 l/m 0,6 km/h (0 Bft) 0,00 h 2,4 km/h (1 Bft)
20.08.2009 07:00 24,3 C 19,7 C 0,2 UV-I 0,1 C 58 % 78 % 4 % 1016,8 hPa 0,0 l/m 1,4 km/h (1 Bft) 0,00 h 3,6 km/h (1 Bft)
20.08.2009 08:00 24,3 C 21,0 C 0,9 UV-I 0,8 C 59 % 76 % 23 % 1016,7 hPa 0,0 l/m 1,7 km/h (1 Bft) 0,00 h 4,8 km/h (1 Bft)
20.08.2009 09:00 24,6 C 22,9 C 1,1 UV-I 1,4 C 59 % 71 % 40 % 1016,6 hPa 0,0 l/m 2,1 km/h (1 Bft) 0,00 h 5,9 km/h (2 Bft)
20.08.2009 10:00 24,8 C 23,3 C 3,7 UV-I 2,1 C 60 % 81 % 53 % 1017,2 hPa 3,7 l/m 0,4 km/h (0 Bft) 0,47 h 1,2 km/h (1 Bft)
20.08.2009 11:00 25,0 C 25,2 C 4,6 UV-I 3,8 C 62 % 75 % 93 % 1016,9 hPa 0,0 l/m 1,7 km/h (1 Bft) 0,63 h 4,7 km/h (1 Bft)
20.08.2009 12:00 25,3 C 28,8 C 8,6 UV-I 4,8 C 61 % 60 % 100 % 1016,2 hPa 0,0 l/m 4,2 km/h (1 Bft) 0,70 h 10,2 km/h (2 Bft)
20.08.2009 13:00 25,9 C 32,8 C 7,6 UV-I 4,3 C 60 % 48 % 100 % 1015,9 hPa 0,0 l/m 5,8 km/h (2 Bft) 0,87 h 11,1 km/h (2 Bft)
20.08.2009 14:00 27,1 C 35,0 C 5,3 UV-I 2,0 C 57 % 43 % 58 % 1016,6 hPa 0,0 l/m 5,0 km/h (1 Bft) 0,40 h 9,0 km/h (2 Bft)
20.08.2009 15:00 27,7 C 35,2 C 4,5 UV-I 1,5 C 56 % 39 % 44 % 1016,4 hPa 0,0 l/m 5,7 km/h (1 Bft) 0,10 h 12,7 km/h (3 Bft)
20.08.2009 16:00 27,4 C 34,2 C 1,8 UV-I 0,3 C 54 % 38 % 8 % 1015,3 hPa 0,0 l/m 3,9 km/h (1 Bft) 0,00 h 7,6 km/h (2 Bft)
20.08.2009 17:00 27,3 C 33,8 C 2,1 UV-I 1,5 C 54 % 39 % 43 % 1015,0 hPa 0,0 l/m 2,9 km/h (1 Bft) 0,00 h 6,4 km/h (2 Bft)
20.08.2009 18:00 27,7 C 34,3 C 1,7 UV-I 1,2 C 53 % 37 % 35 % 1014,6 hPa 0,0 l/m 5,2 km/h (1 Bft) 0,00 h 9,1 km/h (2 Bft)
20.08.2009 19:00 27,5 C 31,4 C 0,5 UV-I 0,0 C 53 % 43 % 0 % 1014,7 hPa 0,0 l/m 6,5 km/h (2 Bft) 0,00 h 10,1 km/h (2 Bft)
20.08.2009 20:00 26,9 C 25,6 C 0,0 UV-I 0,0 C 54 % 57 % 0 % 1017,4 hPa 0,0 l/m 5,7 km/h (1 Bft) 0,00 h 8,0 km/h (2 Bft)
20.08.2009 21:00 26,4 C 23,7 C 0,0 UV-I 0,0 C 55 % 63 % 0 % 1018,5 hPa 0,0 l/m 5,4 km/h (1 Bft) 0,00 h 6,8 km/h (2 Bft)
20.08.2009 22:00 26,1 C 22,4 C 0,0 UV-I 0,0 C 57 % 72 % 0 % 1020,5 hPa 2,0 l/m 2,2 km/h (1 Bft) 0,00 h 3,1 km/h (1 Bft)
20.08.2009 23:00 25,7 C 20,6 C 0,0 UV-I 0,0 C 62 % 82 % 0 % 1020,0 hPa 0,1 l/m 0,2 km/h (0 Bft) 0,00 h 0,5 km/h (0 Bft)
21.08.2009 00:00 25,3 C 19,9 C 0,0 UV-I 0,0 C 63 % 86 % 0 % 1020,5 hPa 0,0 l/m 0,3 km/h (0 Bft) 0,00 h 0,6 km/h (0 Bft)
21.08.2009 01:00 25,1 C 19,4 C 0,0 UV-I 0,0 C 63 % 88 % 0 % 1020,7 hPa 0,0 l/m 1,0 km/h (0 Bft) 0,00 h 2,0 km/h (1 Bft)
21.08.2009 02:00 24,9 C 19,0 C 0,0 UV-I 0,0 C 63 % 87 % 0 % 1020,8 hPa 0,0 l/m 0,2 km/h (0 Bft) 0,00 h 0,0 km/h (0 Bft)
21.08.2009 03:00 24,7 C 18,2 C 0,0 UV-I 0,0 C 61 % 83 % 0 % 1020,8 hPa 0,0 l/m 0,9 km/h (0 Bft) 0,00 h 1,3 km/h (1 Bft)
21.08.2009 04:00 24,3 C 17,3 C 0,0 UV-I 0,0 C 58 % 80 % 0 % 1020,8 hPa 0,0 l/m 0,4 km/h (0 Bft) 0,00 h 1,8 km/h (1 Bft)
21.08.2009 05:00 24,1 C 17,1 C 0,0 UV-I 0,0 C 57 % 82 % 0 % 1021,2 hPa 0,0 l/m 0,7 km/h (0 Bft) 0,00 h 3,0 km/h (1 Bft)
21.08.2009 06:00 23,8 C 16,8 C 0,0 UV-I 0,0 C 56 % 81 % 0 % 1021,3 hPa 0,0 l/m 0,5 km/h (0 Bft) 0,00 h 1,7 km/h (1 Bft)
21.08.2009 07:00 23,7 C 16,7 C 0,2 UV-I 0,0 C 56 % 80 % 0 % 1021,7 hPa 0,0 l/m 1,1 km/h (1 Bft) 0,00 h 2,9 km/h (1 Bft)
21.08.2009 08:00 23,6 C 16,8 C 0,7 UV-I 0,0 C 55 % 79 % 0 % 1021,7 hPa 0,0 l/m 0,9 km/h (0 Bft) 0,00 h 3,4 km/h (1 Bft)
21.08.2009 09:00 23,6 C 17,3 C 1,7 UV-I 0,9 C 56 % 79 % 25 % 1022,3 hPa 0,0 l/m 2,9 km/h (1 Bft) 0,00 h 7,2 km/h (2 Bft)
21.08.2009 10:00 23,8 C 18,5 C 3,5 UV-I 2,1 C 56 % 76 % 59 % 1022,8 hPa 0,0 l/m 3,8 km/h (1 Bft) 0,17 h 8,2 km/h (2 Bft)
21.08.2009 11:00 23,8 C 19,5 C 6,8 UV-I 3,2 C 55 % 70 % 77 % 1022,9 hPa 0,0 l/m 3,7 km/h (1 Bft) 0,50 h 7,2 km/h (2 Bft)
21.08.2009 12:00 24,0 C 21,6 C 10,0 UV-I 4,5 C 53 % 59 % 100 % 1022,7 hPa 0,0 l/m 4,5 km/h (1 Bft) 0,87 h 8,1 km/h (2 Bft)
21.08.2009 13:00 24,5 C 23,1 C 6,0 UV-I 3,2 C 51 % 52 % 77 % 1022,7 hPa 0,0 l/m 4,2 km/h (1 Bft) 0,40 h 7,8 km/h (2 Bft)
21.08.2009 14:00 25,9 C 24,3 C 7,6 UV-I 4,4 C 48 % 46 % 96 % 1024,2 hPa 0,0 l/m 5,0 km/h (1 Bft) 0,83 h 9,0 km/h (2 Bft)
21.08.2009 15:00 27,2 C 25,0 C 8,1 UV-I 3,3 C 43 % 42 % 81 % 1026,1 hPa 0,0 l/m 4,8 km/h (1 Bft) 0,50 h 9,5 km/h (2 Bft)
21.08.2009 16:00 27,9 C 24,8 C 4,7 UV-I 3,2 C 41 % 41 % 87 % 1025,0 hPa 0,0 l/m 3,8 km/h (1 Bft) 0,50 h 8,1 km/h (2 Bft)
21.08.2009 17:00 27,4 C 24,0 C 2,1 UV-I 0,8 C 41 % 42 % 24 % 1023,8 hPa 0,0 l/m 2,5 km/h (1 Bft) 0,00 h 5,6 km/h (1 Bft)
21.08.2009 18:00 26,4 C 23,0 C 1,1 UV-I 0,0 C 42 % 45 % 1 % 1022,6 hPa 0,0 l/m 2,2 km/h (1 Bft) 0,00 h 4,7 km/h (1 Bft)
21.08.2009 19:00 25,9 C 21,9 C 0,5 UV-I 0,0 C 43 % 47 % 0 % 1022,5 hPa 0,0 l/m 1,4 km/h (1 Bft) 0,00 h 3,9 km/h (1 Bft)
21.08.2009 20:00 25,4 C 20,8 C 0,0 UV-I 0,0 C 45 % 54 % 0 % 1022,6 hPa 0,0 l/m 0,7 km/h (0 Bft) 0,00 h 1,2 km/h (1 Bft)
21.08.2009 21:00 24,9 C 19,6 C 0,0 UV-I 0,0 C 48 % 61 % 0 % 1023,2 hPa 0,0 l/m 1,2 km/h (1 Bft) 0,00 h 1,3 km/h (1 Bft)
21.08.2009 22:00 24,6 C 18,6 C 0,0 UV-I 0,0 C 50 % 66 % 0 % 1023,5 hPa 0,0 l/m 0,1 km/h (0 Bft) 0,00 h 0,2 km/h (0 Bft)
21.08.2009 23:00 24,3 C 17,9 C 0,0 UV-I 0,0 C 51 % 70 % 0 % 1023,7 hPa 0,0 l/m 0,0 km/h (0 Bft) 0,00 h 0,0 km/h (0 Bft)
22.08.2009 00:00 23,9 C 16,6 C 0,0 UV-I 0,0 C 51 % 75 % 0 % 1023,9 hPa 0,0 l/m 0,0 km/h (0 Bft) 0,00 h 0,0 km/h (0 Bft)
22.08.2009 01:00 23,6 C 15,3 C 0,0 UV-I 0,0 C 53 % 80 % 0 % 1023,8 hPa 0,0 l/m 0,0 km/h (0 Bft) 0,00 h 0,0 km/h (0 Bft)
22.08.2009 02:00 23,2 C 14,4 C 0,0 UV-I 0,0 C 53 % 83 % 0 % 1023,8 hPa 0,0 l/m 0,0 km/h (0 Bft) 0,00 h 0,0 km/h (0 Bft)
22.08.2009 03:00 23,1 C 14,4 C 0,0 UV-I 0,0 C 54 % 84 % 0 % 1023,9 hPa 0,0 l/m 0,0 km/h (0 Bft) 0,00 h 0,0 km/h (0 Bft)
22.08.2009 04:00 22,9 C 13,7 C 0,0 UV-I 0,0 C 54 % 85 % 0 % 1023,6 hPa 0,0 l/m 0,0 km/h (0 Bft) 0,00 h 0,0 km/h (0 Bft)
22.08.2009 05:00 22,6 C 13,0 C 0,0 UV-I 0,0 C 54 % 87 % 0 % 1024,0 hPa 0,0 l/m 0,0 km/h (0 Bft) 0,00 h 0,0 km/h (0 Bft)
22.08.2009 06:00 22,3 C 12,6 C 0,0 UV-I 0,0 C 54 % 88 % 0 % 1024,1 hPa 0,0 l/m 0,0 km/h (0 Bft) 0,00 h 0,0 km/h (0 Bft)
22.08.2009 07:00 22,2 C 12,4 C 0,2 UV-I 0,0 C 53 % 88 % 0 % 1024,3 hPa 0,0 l/m 0,0 km/h (0 Bft) 0,00 h 0,0 km/h (0 Bft)
22.08.2009 08:00 22,2 C 13,0 C 0,8 UV-I 0,4 C 52 % 85 % 10 % 1024,6 hPa 0,0 l/m 0,3 km/h (0 Bft) 0,00 h 1,4 km/h (1 Bft)
22.08.2009 09:00 22,3 C 14,6 C 1,5 UV-I 1,6 C 53 % 83 % 44 % 1025,0 hPa 0,0 l/m 1,2 km/h (1 Bft) 0,10 h 4,2 km/h (1 Bft)
22.08.2009 10:00 22,5 C 17,1 C 8,2 UV-I 5,9 C 53 % 76 % 100 % 1025,5 hPa 0,0 l/m 1,9 km/h (1 Bft) 0,90 h 4,4 km/h (1 Bft)
22.08.2009 11:00 22,7 C 19,9 C 11,5 UV-I 5,7 C 52 % 64 % 100 % 1025,6 hPa 0,0 l/m 2,9 km/h (1 Bft) 0,90 h 7,1 km/h (2 Bft)
22.08.2009 12:00 23,0 C 22,0 C 11,0 UV-I 5,1 C 51 % 54 % 100 % 1025,8 hPa 0,0 l/m 3,4 km/h (1 Bft) 0,93 h 7,2 km/h (2 Bft)
22.08.2009 13:00 23,6 C 23,3 C 4,6 UV-I 4,3 C 50 % 48 % 89 % 1025,9 hPa 0,0 l/m 3,3 km/h (1 Bft) 0,70 h 6,8 km/h (2 Bft)
22.08.2009 14:00 24,8 C 23,5 C 6,3 UV-I 4,0 C 48 % 48 % 76 % 1027,3 hPa 0,0 l/m 2,5 km/h (1 Bft) 0,67 h 5,0 km/h (1 Bft)
22.08.2009 15:00 25,9 C 24,1 C 5,7 UV-I 3,5 C 45 % 45 % 88 % 1027,6 hPa 0,0 l/m 2,4 km/h (1 Bft) 0,67 h 4,7 km/h (1 Bft)
22.08.2009 16:00 26,9 C 24,4 C 4,1 UV-I 3,9 C 42 % 42 % 90 % 1027,6 hPa 0,0 l/m 2,7 km/h (1 Bft) 0,77 h 5,3 km/h (1 Bft)
22.08.2009 17:00 27,3 C 24,2 C 2,1 UV-I 3,6 C 41 % 42 % 75 % 1027,2 hPa 0,0 l/m 3,0 km/h (1 Bft) 0,50 h 6,0 km/h (2 Bft)
22.08.2009 18:00 26,4 C 23,3 C 1,4 UV-I 1,1 C 43 % 45 % 30 % 1026,0 hPa 0,0 l/m 1,5 km/h (1 Bft) 0,00 h 3,1 km/h (1 Bft)
22.08.2009 19:00 25,6 C 22,2 C 0,6 UV-I 0,0 C 44 % 49 % 1 % 1025,6 hPa 0,0 l/m 1,1 km/h (0 Bft) 0,00 h 1,7 km/h (1 Bft)
22.08.2009 20:00 25,0 C 20,6 C 0,0 UV-I 0,0 C 46 % 56 % 0 % 1025,5 hPa 0,0 l/m 0,0 km/h (0 Bft) 0,00 h 0,1 km/h (0 Bft)
22.08.2009 21:00 24,3 C 18,5 C 0,0 UV-I 0,0 C 48 % 64 % 0 % 1025,9 hPa 0,0 l/m 0,0 km/h (0 Bft) 0,00 h 0,0 km/h (0 Bft)
22.08.2009 22:00 23,9 C 16,9 C 0,0 UV-I 0,0 C 50 % 71 % 0 % 1026,2 hPa 0,0 l/m 0,0 km/h (0 Bft) 0,00 h 0,0 km/h (0 Bft)
22.08.2009 23:00 23,4 C 15,5 C 0,0 UV-I 0,0 C 51 % 77 % 0 % 1026,2 hPa 0,0 l/m 0,0 km/h (0 Bft) 0,00 h 0,0 km/h (0 Bft)
23.08.2009 00:00 23,1 C 14,5 C 0,0 UV-I 0,0 C 52 % 80 % 0 % 1026,0 hPa 0,0 l/m 0,0 km/h (0 Bft) 0,00 h 0,0 km/h (0 Bft)
23.08.2009 01:00 22,8 C 13,5 C 0,0 UV-I 0,0 C 52 % 83 % 0 % 1025,6 hPa 0,0 l/m 0,0 km/h (0 Bft) 0,00 h 0,0 km/h (0 Bft)
23.08.2009 02:00 22,5 C 12,7 C 0,0 UV-I 0,0 C 52 % 85 % 0 % 1025,1 hPa 0,0 l/m 0,0 km/h (0 Bft) 0,00 h 0,0 km/h (0 Bft)
23.08.2009 03:00 22,2 C 12,2 C 0,0 UV-I 0,0 C 53 % 87 % 0 % 1024,9 hPa 0,0 l/m 0,0 km/h (0 Bft) 0,00 h 0,0 km/h (0 Bft)
23.08.2009 04:00 22,1 C 11,6 C 0,0 UV-I 0,0 C 53 % 88 % 0 % 1024,7 hPa 0,0 l/m 0,0 km/h (0 Bft) 0,00 h 0,0 km/h (0 Bft)
23.08.2009 05:00 21,9 C 11,1 C 0,0 UV-I 0,0 C 52 % 89 % 0 % 1024,3 hPa 0,0 l/m 0,0 km/h (0 Bft) 0,00 h 0,0 km/h (0 Bft)
23.08.2009 06:00 21,7 C 11,1 C 0,0 UV-I 0,0 C 53 % 90 % 0 % 1024,0 hPa 0,0 l/m 0,0 km/h (0 Bft) 0,00 h 0,0 km/h (0 Bft)
23.08.2009 07:00 21,6 C 11,4 C 0,1 UV-I 0,0 C 53 % 90 % 0 % 1024,2 hPa 0,0 l/m 0,0 km/h (0 Bft) 0,00 h 0,0 km/h (0 Bft)
23.08.2009 08:00 21,8 C 12,7 C 0,7 UV-I 0,7 C 53 % 88 % 21 % 1024,0 hPa 0,0 l/m 0,4 km/h (0 Bft) 0,00 h 1,6 km/h (1 Bft)
23.08.2009 09:00 21,9 C 15,0 C 1,3 UV-I 2,0 C 53 % 83 % 56 % 1024,0 hPa 0,0 l/m 1,0 km/h (0 Bft) 0,10 h 3,7 km/h (1 Bft)
23.08.2009 10:00 22,1 C 18,2 C 7,9 UV-I 7,0 C 53 % 72 % 100 % 1023,9 hPa 0,0 l/m 1,7 km/h (1 Bft) 0,97 h 4,1 km/h (1 Bft)
23.08.2009 11:00 22,4 C 22,3 C 12,5 UV-I 6,1 C 53 % 60 % 100 % 1023,7 hPa 0,0 l/m 2,4 km/h (1 Bft) 0,87 h 5,6 km/h (1 Bft)
23.08.2009 12:00 22,8 C 25,4 C 12,2 UV-I 4,2 C 52 % 48 % 98 % 1023,0 hPa 0,0 l/m 5,4 km/h (1 Bft) 0,87 h 9,4 km/h (2 Bft)
23.08.2009 13:00 23,4 C 27,3 C 6,3 UV-I 3,5 C 49 % 38 % 96 % 1022,3 hPa 0,0 l/m 5,1 km/h (1 Bft) 0,70 h 8,6 km/h (2 Bft)
23.08.2009 14:00 25,1 C 28,6 C 9,2 UV-I 2,9 C 45 % 34 % 83 % 1023,6 hPa 0,0 l/m 5,1 km/h (1 Bft) 0,33 h 8,2 km/h (2 Bft)
23.08.2009 15:00 26,8 C 29,5 C 10,8 UV-I 2,9 C 41 % 33 % 83 % 1024,5 hPa 0,0 l/m 4,5 km/h (1 Bft) 0,27 h 8,8 km/h (2 Bft)
23.08.2009 16:00 28,2 C 29,4 C 4,7 UV-I 2,7 C 38 % 32 % 78 % 1024,3 hPa 0,0 l/m 5,3 km/h (1 Bft) 0,33 h 11,0 km/h (2 Bft)
23.08.2009 17:00 28,3 C 28,2 C 1,8 UV-I 1,7 C 37 % 34 % 48 % 1021,9 hPa 0,0 l/m 4,1 km/h (1 Bft) 0,20 h 6,5 km/h (2 Bft)
23.08.2009 18:00 26,8 C 26,4 C 1,2 UV-I 0,3 C 40 % 37 % 9 % 1019,4 hPa 0,0 l/m 2,5 km/h (1 Bft) 0,00 h 5,6 km/h (1 Bft)
23.08.2009 19:00 26,0 C 25,1 C 0,4 UV-I 0,0 C 42 % 40 % 0 % 1018,4 hPa 0,0 l/m 0,8 km/h (0 Bft) 0,00 h 2,5 km/h (1 Bft)
23.08.2009 20:00 25,4 C 23,4 C 0,0 UV-I 0,0 C 43 % 45 % 0 % 1017,7 hPa 0,0 l/m 0,1 km/h (0 Bft) 0,00 h 0,0 km/h (0 Bft)
23.08.2009 21:00 24,8 C 21,2 C 0,0 UV-I 0,0 C 44 % 49 % 0 % 1017,3 hPa 0,0 l/m 0,0 km/h (0 Bft) 0,00 h 0,0 km/h (0 Bft)
23.08.2009 22:00 24,4 C 19,3 C 0,0 UV-I 0,0 C 45 % 55 % 0 % 1017,1 hPa 0,0 l/m 0,0 km/h (0 Bft) 0,00 h 0,0 km/h (0 Bft)
23.08.2009 23:00 24,0 C 17,7 C 0,0 UV-I 0,0 C 46 % 60 % 0 % 1016,7 hPa 0,0 l/m 0,0 km/h (0 Bft) 0,00 h 0,0 km/h (0 Bft)
Min-Datum _ 23.08.09 23.08.09 17.08.09 17.08.09 23.08.09 23.08.09 17.08.09 20.08.09 - 17.08.09 - 17.08.09
_ Min-Zeit 07:06 05:44 00:00 00:00 16:24 16:10 00:00 19:19 - 00:02 - 00:00
Minimum _ 21,6 C 11,0 C 0,0 UV-I 0,0 C 37 % 30 % 0 % 1013,9 hPa - 0,0 km/h (0 Bft) - 0,0 km/h (0 Bft)
Max-Datum _ 19.08.09 20.08.09 19.08.09 23.08.09 17.08.09 18.08.09 17.08.09 22.08.09 20.08.09 20.08.09 17.08.09 20.08.09
_ Max-Zeit 17:20 14:28 10:42 10:20 07:46 08:22 09:56 14:38 10:02 19:49 09:54 15:32
Maximum _ 30,0 C 35,5 C 13,1 UV-I 7,9 C 63 % 94 % 100 % 1029,5 hPa 3,7 l/m 11,3 km/h
W-SW (2 Bft)
0,03 h 28,6 km/h
N-NO (4 Bft)
Durchschnitt _ 24,6 C 20,8 C 2,4 UV-I 1,4 C 53 % 66 % 31 % 1021,0 hPa #5,9 l/m 1,6 km/h (1 Bft) #33:28 h 3,3 km/h (1 Bft)
© 2012 W. Hausmann